sensor_id;sensor_type;location;lat;lon;timestamp;temperature;humidity
913;DHT22;443;51.448;7.028;2022-07-23T00:01:10;20.80;82.40
913;DHT22;443;51.448;7.028;2022-07-23T00:03:37;20.80;82.60
913;DHT22;443;51.448;7.028;2022-07-23T00:06:04;20.80;82.60
913;DHT22;443;51.448;7.028;2022-07-23T00:08:31;20.80;83.00
913;DHT22;443;51.448;7.028;2022-07-23T00:10:58;20.70;82.60
913;DHT22;443;51.448;7.028;2022-07-23T00:13:26;20.70;82.50
913;DHT22;443;51.448;7.028;2022-07-23T00:15:53;20.70;82.20
913;DHT22;443;51.448;7.028;2022-07-23T00:18:22;20.70;82.70
913;DHT22;443;51.448;7.028;2022-07-23T00:20:49;20.70;83.00
913;DHT22;443;51.448;7.028;2022-07-23T00:23:16;20.70;82.20
913;DHT22;443;51.448;7.028;2022-07-23T00:25:43;20.70;83.30
913;DHT22;443;51.448;7.028;2022-07-23T00:28:11;20.60;82.70
913;DHT22;443;51.448;7.028;2022-07-23T00:30:38;20.60;82.70
913;DHT22;443;51.448;7.028;2022-07-23T00:33:06;20.60;82.80
913;DHT22;443;51.448;7.028;2022-07-23T00:35:36;20.60;82.80
913;DHT22;443;51.448;7.028;2022-07-23T00:38:04;20.60;83.20
913;DHT22;443;51.448;7.028;2022-07-23T00:40:31;20.60;82.80
913;DHT22;443;51.448;7.028;2022-07-23T00:42:59;20.60;83.00
913;DHT22;443;51.448;7.028;2022-07-23T00:45:26;20.60;83.40
913;DHT22;443;51.448;7.028;2022-07-23T00:47:53;20.60;83.30
913;DHT22;443;51.448;7.028;2022-07-23T00:50:20;20.60;83.50
913;DHT22;443;51.448;7.028;2022-07-23T00:52:48;20.60;83.40
913;DHT22;443;51.448;7.028;2022-07-23T00:55:15;20.60;83.60
913;DHT22;443;51.448;7.028;2022-07-23T00:57:43;20.50;83.00
913;DHT22;443;51.448;7.028;2022-07-23T01:00:12;20.50;83.00
913;DHT22;443;51.448;7.028;2022-07-23T01:02:40;20.50;83.00
913;DHT22;443;51.448;7.028;2022-07-23T01:05:08;20.50;82.90
913;DHT22;443;51.448;7.028;2022-07-23T01:07:35;20.50;82.90
913;DHT22;443;51.448;7.028;2022-07-23T01:10:04;20.50;82.80
913;DHT22;443;51.448;7.028;2022-07-23T01:12:51;20.50;83.00
913;DHT22;443;51.448;7.028;2022-07-23T01:15:18;20.50;83.20
913;DHT22;443;51.448;7.028;2022-07-23T01:17:45;20.50;83.00
913;DHT22;443;51.448;7.028;2022-07-23T01:20:12;20.50;83.20
913;DHT22;443;51.448;7.028;2022-07-23T01:22:40;20.50;83.00
913;DHT22;443;51.448;7.028;2022-07-23T01:25:08;20.50;83.60
913;DHT22;443;51.448;7.028;2022-07-23T01:27:35;20.50;83.40
913;DHT22;443;51.448;7.028;2022-07-23T01:30:03;20.40;82.90
913;DHT22;443;51.448;7.028;2022-07-23T01:32:30;20.40;83.20
913;DHT22;443;51.448;7.028;2022-07-23T01:34:57;20.40;83.60
913;DHT22;443;51.448;7.028;2022-07-23T01:37:24;20.40;83.10
913;DHT22;443;51.448;7.028;2022-07-23T01:39:52;20.40;83.50
913;DHT22;443;51.448;7.028;2022-07-23T01:42:19;20.40;84.10
913;DHT22;443;51.448;7.028;2022-07-23T01:44:46;20.40;83.90
913;DHT22;443;51.448;7.028;2022-07-23T01:47:13;20.40;83.60
913;DHT22;443;51.448;7.028;2022-07-23T01:49:40;20.40;83.70
913;DHT22;443;51.448;7.028;2022-07-23T01:52:06;20.40;83.80
913;DHT22;443;51.448;7.028;2022-07-23T01:54:36;20.40;84.10
913;DHT22;443;51.448;7.028;2022-07-23T01:57:06;20.40;84.10
913;DHT22;443;51.448;7.028;2022-07-23T01:59:33;20.40;84.10
913;DHT22;443;51.448;7.028;2022-07-23T02:02:00;20.40;84.10
913;DHT22;443;51.448;7.028;2022-07-23T02:04:29;20.40;83.70
913;DHT22;443;51.448;7.028;2022-07-23T02:06:55;20.40;84.10
913;DHT22;443;51.448;7.028;2022-07-23T02:09:22;20.40;83.90
913;DHT22;443;51.448;7.028;2022-07-23T02:11:49;20.40;84.80
913;DHT22;443;51.448;7.028;2022-07-23T02:14:17;20.40;84.60
913;DHT22;443;51.448;7.028;2022-07-23T02:16:44;20.40;84.10
913;DHT22;443;51.448;7.028;2022-07-23T02:19:11;20.40;84.80
913;DHT22;443;51.448;7.028;2022-07-23T02:21:38;20.40;84.40
913;DHT22;443;51.448;7.028;2022-07-23T02:24:05;20.40;84.40
913;DHT22;443;51.448;7.028;2022-07-23T02:26:32;20.40;84.10
913;DHT22;443;51.448;7.028;2022-07-23T02:29:00;20.40;83.90
913;DHT22;443;51.448;7.028;2022-07-23T02:31:28;20.40;84.00
913;DHT22;443;51.448;7.028;2022-07-23T02:33:56;20.40;84.30
913;DHT22;443;51.448;7.028;2022-07-23T02:36:23;20.40;83.80
913;DHT22;443;51.448;7.028;2022-07-23T02:38:50;20.40;83.60
913;DHT22;443;51.448;7.028;2022-07-23T02:41:17;20.40;83.50
913;DHT22;443;51.448;7.028;2022-07-23T02:43:44;20.40;83.10
913;DHT22;443;51.448;7.028;2022-07-23T02:46:10;20.30;83.20
913;DHT22;443;51.448;7.028;2022-07-23T02:48:38;20.30;83.50
913;DHT22;443;51.448;7.028;2022-07-23T02:51:05;20.30;83.80
913;DHT22;443;51.448;7.028;2022-07-23T02:53:32;20.30;83.60
913;DHT22;443;51.448;7.028;2022-07-23T02:55:59;20.30;83.40
913;DHT22;443;51.448;7.028;2022-07-23T02:58:26;20.30;83.50
913;DHT22;443;51.448;7.028;2022-07-23T03:00:53;20.30;83.60
913;DHT22;443;51.448;7.028;2022-07-23T03:03:19;20.30;84.00
913;DHT22;443;51.448;7.028;2022-07-23T03:05:48;20.30;83.90
913;DHT22;443;51.448;7.028;2022-07-23T03:08:15;20.30;83.80
913;DHT22;443;51.448;7.028;2022-07-23T03:10:41;20.30;83.90
913;DHT22;443;51.448;7.028;2022-07-23T03:13:08;20.30;83.70
913;DHT22;443;51.448;7.028;2022-07-23T03:15:35;20.30;83.30
913;DHT22;443;51.448;7.028;2022-07-23T03:18:02;20.30;84.30
913;DHT22;443;51.448;7.028;2022-07-23T03:20:29;20.30;83.50
913;DHT22;443;51.448;7.028;2022-07-23T03:22:57;20.30;83.50
913;DHT22;443;51.448;7.028;2022-07-23T03:25:24;20.30;83.50
913;DHT22;443;51.448;7.028;2022-07-23T03:27:51;20.20;83.40
913;DHT22;443;51.448;7.028;2022-07-23T03:30:18;20.30;83.60
913;DHT22;443;51.448;7.028;2022-07-23T03:32:44;20.20;83.20
913;DHT22;443;51.448;7.028;2022-07-23T03:35:11;20.20;83.10
913;DHT22;443;51.448;7.028;2022-07-23T03:37:38;20.20;82.80
913;DHT22;443;51.448;7.028;2022-07-23T03:40:07;20.20;83.00
913;DHT22;443;51.448;7.028;2022-07-23T03:42:34;20.20;83.00
913;DHT22;443;51.448;7.028;2022-07-23T03:45:03;20.20;83.00
913;DHT22;443;51.448;7.028;2022-07-23T03:47:30;20.20;83.00
913;DHT22;443;51.448;7.028;2022-07-23T03:49:57;20.20;82.70
913;DHT22;443;51.448;7.028;2022-07-23T03:52:23;20.20;83.00
913;DHT22;443;51.448;7.028;2022-07-23T03:54:50;20.10;83.50
913;DHT22;443;51.448;7.028;2022-07-23T03:57:18;20.10;82.60
913;DHT22;443;51.448;7.028;2022-07-23T03:59:45;20.10;83.10
913;DHT22;443;51.448;7.028;2022-07-23T04:02:12;20.10;82.90
913;DHT22;443;51.448;7.028;2022-07-23T04:04:39;20.10;83.50
913;DHT22;443;51.448;7.028;2022-07-23T04:07:06;20.10;82.80
913;DHT22;443;51.448;7.028;2022-07-23T04:09:33;20.10;83.00
913;DHT22;443;51.448;7.028;2022-07-23T04:12:00;20.10;83.00
913;DHT22;443;51.448;7.028;2022-07-23T04:14:29;20.00;82.90
913;DHT22;443;51.448;7.028;2022-07-23T04:16:55;20.00;83.00
913;DHT22;443;51.448;7.028;2022-07-23T04:19:22;20.00;82.60
913;DHT22;443;51.448;7.028;2022-07-23T04:21:49;20.00;82.60
913;DHT22;443;51.448;7.028;2022-07-23T04:24:16;20.00;82.60
913;DHT22;443;51.448;7.028;2022-07-23T04:26:43;20.00;83.00
913;DHT22;443;51.448;7.028;2022-07-23T04:29:09;20.00;82.90
913;DHT22;443;51.448;7.028;2022-07-23T04:31:38;19.90;82.70
913;DHT22;443;51.448;7.028;2022-07-23T04:34:04;20.00;82.80
913;DHT22;443;51.448;7.028;2022-07-23T04:36:31;19.90;82.70
913;DHT22;443;51.448;7.028;2022-07-23T04:38:58;19.90;83.60
913;DHT22;443;51.448;7.028;2022-07-23T04:41:25;19.90;83.10
913;DHT22;443;51.448;7.028;2022-07-23T04:43:52;19.90;83.30
913;DHT22;443;51.448;7.028;2022-07-23T04:46:19;19.90;83.20
913;DHT22;443;51.448;7.028;2022-07-23T04:48:47;19.90;83.20
913;DHT22;443;51.448;7.028;2022-07-23T04:51:14;19.90;83.00
913;DHT22;443;51.448;7.028;2022-07-23T04:53:40;19.90;83.40
913;DHT22;443;51.448;7.028;2022-07-23T04:56:07;19.90;83.20
913;DHT22;443;51.448;7.028;2022-07-23T04:58:34;19.90;83.50
913;DHT22;443;51.448;7.028;2022-07-23T05:01:01;20.00;83.50
913;DHT22;443;51.448;7.028;2022-07-23T05:03:28;20.00;83.30
913;DHT22;443;51.448;7.028;2022-07-23T05:05:56;20.00;84.10
913;DHT22;443;51.448;7.028;2022-07-23T05:08:23;20.00;83.40
913;DHT22;443;51.448;7.028;2022-07-23T05:10:50;20.00;83.10
913;DHT22;443;51.448;7.028;2022-07-23T05:13:17;20.00;83.20
913;DHT22;443;51.448;7.028;2022-07-23T05:15:44;20.00;84.10
913;DHT22;443;51.448;7.028;2022-07-23T05:18:11;20.00;83.40
913;DHT22;443;51.448;7.028;2022-07-23T05:20:38;20.00;83.20
913;DHT22;443;51.448;7.028;2022-07-23T05:23:06;20.00;83.20
913;DHT22;443;51.448;7.028;2022-07-23T05:25:34;20.10;83.80
913;DHT22;443;51.448;7.028;2022-07-23T05:28:00;20.00;83.70
913;DHT22;443;51.448;7.028;2022-07-23T05:30:27;20.10;84.00
913;DHT22;443;51.448;7.028;2022-07-23T05:32:54;20.10;83.80
913;DHT22;443;51.448;7.028;2022-07-23T05:35:21;20.10;83.90
913;DHT22;443;51.448;7.028;2022-07-23T05:37:48;20.10;83.70
913;DHT22;443;51.448;7.028;2022-07-23T05:40:16;20.10;83.50
913;DHT22;443;51.448;7.028;2022-07-23T05:42:43;20.10;83.60
913;DHT22;443;51.448;7.028;2022-07-23T05:45:10;20.10;83.70
913;DHT22;443;51.448;7.028;2022-07-23T05:47:42;20.20;83.80
913;DHT22;443;51.448;7.028;2022-07-23T05:50:10;20.20;83.90
913;DHT22;443;51.448;7.028;2022-07-23T05:52:37;20.20;83.70
913;DHT22;443;51.448;7.028;2022-07-23T05:55:05;20.20;83.50
913;DHT22;443;51.448;7.028;2022-07-23T05:57:33;20.20;83.30
913;DHT22;443;51.448;7.028;2022-07-23T06:00:00;20.20;82.80
913;DHT22;443;51.448;7.028;2022-07-23T06:02:27;20.20;82.60
913;DHT22;443;51.448;7.028;2022-07-23T06:04:54;20.20;82.70
913;DHT22;443;51.448;7.028;2022-07-23T06:07:21;20.20;82.50
913;DHT22;443;51.448;7.028;2022-07-23T06:09:48;20.20;82.70
913;DHT22;443;51.448;7.028;2022-07-23T06:12:15;20.20;82.80
913;DHT22;443;51.448;7.028;2022-07-23T06:14:43;20.20;82.70
913;DHT22;443;51.448;7.028;2022-07-23T06:17:10;20.20;82.50
913;DHT22;443;51.448;7.028;2022-07-23T06:19:37;20.20;82.50
913;DHT22;443;51.448;7.028;2022-07-23T06:22:04;20.30;82.60
913;DHT22;443;51.448;7.028;2022-07-23T06:24:31;20.30;83.10
913;DHT22;443;51.448;7.028;2022-07-23T06:26:58;20.30;82.60
913;DHT22;443;51.448;7.028;2022-07-23T06:29:24;20.30;82.70
913;DHT22;443;51.448;7.028;2022-07-23T06:31:53;20.30;82.60
913;DHT22;443;51.448;7.028;2022-07-23T06:34:19;20.30;82.70
913;DHT22;443;51.448;7.028;2022-07-23T06:36:46;20.40;82.70
913;DHT22;443;51.448;7.028;2022-07-23T06:39:13;20.40;82.70
913;DHT22;443;51.448;7.028;2022-07-23T06:41:40;20.40;82.60
913;DHT22;443;51.448;7.028;2022-07-23T06:44:07;20.40;82.70
913;DHT22;443;51.448;7.028;2022-07-23T06:46:34;20.40;82.90
913;DHT22;443;51.448;7.028;2022-07-23T06:49:02;20.40;82.70
913;DHT22;443;51.448;7.028;2022-07-23T06:51:30;20.40;82.90
913;DHT22;443;51.448;7.028;2022-07-23T06:53:57;20.40;82.60
913;DHT22;443;51.448;7.028;2022-07-23T06:56:24;20.40;82.80
913;DHT22;443;51.448;7.028;2022-07-23T06:58:51;20.50;82.90
913;DHT22;443;51.448;7.028;2022-07-23T07:01:18;20.50;83.50
913;DHT22;443;51.448;7.028;2022-07-23T07:03:45;20.50;82.20
913;DHT22;443;51.448;7.028;2022-07-23T07:06:13;20.50;81.90
913;DHT22;443;51.448;7.028;2022-07-23T07:08:41;20.50;81.80
913;DHT22;443;51.448;7.028;2022-07-23T07:11:08;20.50;81.60
913;DHT22;443;51.448;7.028;2022-07-23T07:13:35;20.60;82.20
913;DHT22;443;51.448;7.028;2022-07-23T07:16:02;20.50;82.40
913;DHT22;443;51.448;7.028;2022-07-23T07:18:29;20.60;82.50
913;DHT22;443;51.448;7.028;2022-07-23T07:20:57;20.60;81.70
913;DHT22;443;51.448;7.028;2022-07-23T07:23:25;20.60;81.30
913;DHT22;443;51.448;7.028;2022-07-23T07:25:52;20.60;80.80
913;DHT22;443;51.448;7.028;2022-07-23T07:28:18;20.60;80.80
913;DHT22;443;51.448;7.028;2022-07-23T07:30:46;20.60;81.10
913;DHT22;443;51.448;7.028;2022-07-23T07:33:13;20.70;81.30
913;DHT22;443;51.448;7.028;2022-07-23T07:35:39;20.70;81.90
913;DHT22;443;51.448;7.028;2022-07-23T07:38:06;20.70;81.30
913;DHT22;443;51.448;7.028;2022-07-23T07:40:35;20.70;81.00
913;DHT22;443;51.448;7.028;2022-07-23T07:43:01;20.70;81.00
913;DHT22;443;51.448;7.028;2022-07-23T07:45:29;20.70;80.30
913;DHT22;443;51.448;7.028;2022-07-23T07:47:56;20.70;81.00
913;DHT22;443;51.448;7.028;2022-07-23T07:50:23;20.80;80.40
913;DHT22;443;51.448;7.028;2022-07-23T07:52:50;20.80;79.80
913;DHT22;443;51.448;7.028;2022-07-23T07:55:17;20.80;79.50
913;DHT22;443;51.448;7.028;2022-07-23T07:57:45;20.80;80.60
913;DHT22;443;51.448;7.028;2022-07-23T08:00:13;20.80;79.50
913;DHT22;443;51.448;7.028;2022-07-23T08:02:41;20.80;79.60
913;DHT22;443;51.448;7.028;2022-07-23T08:05:09;20.80;79.80
913;DHT22;443;51.448;7.028;2022-07-23T08:07:36;20.80;79.50
913;DHT22;443;51.448;7.028;2022-07-23T08:10:05;20.90;79.00
913;DHT22;443;51.448;7.028;2022-07-23T08:12:40;20.90;80.70
913;DHT22;443;51.448;7.028;2022-07-23T08:15:10;20.90;81.10
913;DHT22;443;51.448;7.028;2022-07-23T08:17:37;20.90;81.10
913;DHT22;443;51.448;7.028;2022-07-23T08:20:05;20.80;81.00
913;DHT22;443;51.448;7.028;2022-07-23T08:22:42;20.80;81.20
913;DHT22;443;51.448;7.028;2022-07-23T08:25:09;20.90;81.30
913;DHT22;443;51.448;7.028;2022-07-23T08:27:36;20.90;82.20
913;DHT22;443;51.448;7.028;2022-07-23T08:30:04;20.90;80.50
913;DHT22;443;51.448;7.028;2022-07-23T08:32:32;20.90;80.10
913;DHT22;443;51.448;7.028;2022-07-23T08:34:59;21.00;81.00
913;DHT22;443;51.448;7.028;2022-07-23T08:37:26;21.00;81.00
913;DHT22;443;51.448;7.028;2022-07-23T08:39:53;21.00;81.20
913;DHT22;443;51.448;7.028;2022-07-23T08:42:21;21.00;81.00
913;DHT22;443;51.448;7.028;2022-07-23T08:44:48;21.00;81.00
913;DHT22;443;51.448;7.028;2022-07-23T08:47:16;21.00;81.20
913;DHT22;443;51.448;7.028;2022-07-23T08:49:46;21.00;80.60
913;DHT22;443;51.448;7.028;2022-07-23T08:52:13;21.00;80.50
913;DHT22;443;51.448;7.028;2022-07-23T08:54:41;21.10;80.80
913;DHT22;443;51.448;7.028;2022-07-23T08:57:08;21.00;79.80
913;DHT22;443;51.448;7.028;2022-07-23T08:59:34;21.00;80.10
913;DHT22;443;51.448;7.028;2022-07-23T09:02:01;21.10;80.10
913;DHT22;443;51.448;7.028;2022-07-23T09:04:28;21.10;78.00
913;DHT22;443;51.448;7.028;2022-07-23T09:06:56;21.10;79.70
913;DHT22;443;51.448;7.028;2022-07-23T09:09:23;21.10;80.00
913;DHT22;443;51.448;7.028;2022-07-23T09:12:02;21.10;80.20
913;DHT22;443;51.448;7.028;2022-07-23T09:14:37;21.10;79.40
913;DHT22;443;51.448;7.028;2022-07-23T09:17:12;21.10;80.10
913;DHT22;443;51.448;7.028;2022-07-23T09:19:39;21.10;80.80
913;DHT22;443;51.448;7.028;2022-07-23T09:22:22;21.10;80.10
913;DHT22;443;51.448;7.028;2022-07-23T09:25:03;21.10;80.30
913;DHT22;443;51.448;7.028;2022-07-23T09:27:46;21.10;79.10
913;DHT22;443;51.448;7.028;2022-07-23T09:30:13;21.10;78.70
913;DHT22;443;51.448;7.028;2022-07-23T09:32:40;21.20;79.20
913;DHT22;443;51.448;7.028;2022-07-23T09:35:08;21.10;78.50
913;DHT22;443;51.448;7.028;2022-07-23T09:37:36;21.20;77.30
913;DHT22;443;51.448;7.028;2022-07-23T09:40:05;21.10;77.60
913;DHT22;443;51.448;7.028;2022-07-23T09:42:32;21.20;76.20
913;DHT22;443;51.448;7.028;2022-07-23T09:45:00;21.20;77.70
913;DHT22;443;51.448;7.028;2022-07-23T09:47:28;21.10;77.00
913;DHT22;443;51.448;7.028;2022-07-23T09:50:00;21.20;78.00
913;DHT22;443;51.448;7.028;2022-07-23T09:52:31;21.10;77.30
913;DHT22;443;51.448;7.028;2022-07-23T09:55:00;21.20;77.70
913;DHT22;443;51.448;7.028;2022-07-23T09:57:28;21.20;76.90
913;DHT22;443;51.448;7.028;2022-07-23T09:59:57;21.20;77.90
913;DHT22;443;51.448;7.028;2022-07-23T10:02:25;21.20;78.00
913;DHT22;443;51.448;7.028;2022-07-23T10:04:53;21.20;78.80
913;DHT22;443;51.448;7.028;2022-07-23T10:07:21;21.20;79.10
913;DHT22;443;51.448;7.028;2022-07-23T10:09:50;21.20;79.60
913;DHT22;443;51.448;7.028;2022-07-23T10:12:20;21.10;79.90
913;DHT22;443;51.448;7.028;2022-07-23T10:15:19;21.20;79.90
913;DHT22;443;51.448;7.028;2022-07-23T10:17:46;21.10;78.50
913;DHT22;443;51.448;7.028;2022-07-23T10:20:14;21.20;78.80
913;DHT22;443;51.448;7.028;2022-07-23T10:22:48;21.20;78.40
913;DHT22;443;51.448;7.028;2022-07-23T10:25:22;21.20;78.00
913;DHT22;443;51.448;7.028;2022-07-23T10:28:18;21.20;77.60
913;DHT22;443;51.448;7.028;2022-07-23T10:30:55;21.20;78.20
913;DHT22;443;51.448;7.028;2022-07-23T10:33:30;21.20;78.10
913;DHT22;443;51.448;7.028;2022-07-23T10:36:03;21.20;78.60
913;DHT22;443;51.448;7.028;2022-07-23T10:38:40;21.20;78.20
913;DHT22;443;51.448;7.028;2022-07-23T10:41:09;21.20;78.20
913;DHT22;443;51.448;7.028;2022-07-23T10:43:37;21.20;78.70
913;DHT22;443;51.448;7.028;2022-07-23T10:46:24;21.20;78.80
913;DHT22;443;51.448;7.028;2022-07-23T10:49:26;21.20;79.10
913;DHT22;443;51.448;7.028;2022-07-23T10:52:15;21.20;78.30
913;DHT22;443;51.448;7.028;2022-07-23T10:54:44;21.20;78.30
913;DHT22;443;51.448;7.028;2022-07-23T10:57:12;21.20;79.50
913;DHT22;443;51.448;7.028;2022-07-23T11:00:16;21.20;79.10
913;DHT22;443;51.448;7.028;2022-07-23T11:02:44;21.20;78.20
913;DHT22;443;51.448;7.028;2022-07-23T11:05:13;21.20;78.20
913;DHT22;443;51.448;7.028;2022-07-23T11:08:15;21.20;78.20
913;DHT22;443;51.448;7.028;2022-07-23T11:10:45;21.20;77.90
913;DHT22;443;51.448;7.028;2022-07-23T11:13:30;21.20;78.30
913;DHT22;443;51.448;7.028;2022-07-23T11:16:21;21.20;77.90
913;DHT22;443;51.448;7.028;2022-07-23T11:18:56;21.20;78.10
913;DHT22;443;51.448;7.028;2022-07-23T11:21:41;21.30;78.10
913;DHT22;443;51.448;7.028;2022-07-23T11:24:10;21.20;78.10
913;DHT22;443;51.448;7.028;2022-07-23T11:26:53;21.30;78.00
913;DHT22;443;51.448;7.028;2022-07-23T11:29:46;21.20;77.90
913;DHT22;443;51.448;7.028;2022-07-23T11:32:33;21.30;78.20
913;DHT22;443;51.448;7.028;2022-07-23T11:35:01;21.20;78.20
913;DHT22;443;51.448;7.028;2022-07-23T11:37:35;21.20;78.40
913;DHT22;443;51.448;7.028;2022-07-23T11:40:06;21.20;78.20
913;DHT22;443;51.448;7.028;2022-07-23T11:42:34;21.20;78.30
913;DHT22;443;51.448;7.028;2022-07-23T11:45:04;21.20;78.30
913;DHT22;443;51.448;7.028;2022-07-23T11:47:33;21.20;78.20
913;DHT22;443;51.448;7.028;2022-07-23T11:50:02;21.20;78.10
913;DHT22;443;51.448;7.028;2022-07-23T11:52:29;21.30;78.20
913;DHT22;443;51.448;7.028;2022-07-23T11:54:59;21.30;78.20
913;DHT22;443;51.448;7.028;2022-07-23T11:57:28;21.30;78.30
913;DHT22;443;51.448;7.028;2022-07-23T11:59:57;21.30;78.40
913;DHT22;443;51.448;7.028;2022-07-23T12:02:25;21.30;78.70
913;DHT22;443;51.448;7.028;2022-07-23T12:04:53;21.30;78.30
913;DHT22;443;51.448;7.028;2022-07-23T12:07:25;21.30;78.40
913;DHT22;443;51.448;7.028;2022-07-23T12:09:52;21.30;78.40
913;DHT22;443;51.448;7.028;2022-07-23T12:12:20;21.30;79.20
913;DHT22;443;51.448;7.028;2022-07-23T12:14:51;21.30;78.30
913;DHT22;443;51.448;7.028;2022-07-23T12:17:19;21.30;78.40
913;DHT22;443;51.448;7.028;2022-07-23T12:19:46;21.30;78.40
913;DHT22;443;51.448;7.028;2022-07-23T12:22:14;21.30;78.30
913;DHT22;443;51.448;7.028;2022-07-23T12:24:58;21.30;79.20
913;DHT22;443;51.448;7.028;2022-07-23T12:27:26;21.30;78.30
913;DHT22;443;51.448;7.028;2022-07-23T12:29:53;21.30;78.30
913;DHT22;443;51.448;7.028;2022-07-23T12:32:22;21.30;77.70
913;DHT22;443;51.448;7.028;2022-07-23T12:34:51;21.30;78.00
913;DHT22;443;51.448;7.028;2022-07-23T12:37:34;21.40;78.00
913;DHT22;443;51.448;7.028;2022-07-23T12:40:24;21.40;77.90
913;DHT22;443;51.448;7.028;2022-07-23T12:42:54;21.30;78.00
913;DHT22;443;51.448;7.028;2022-07-23T12:45:21;21.40;79.10
913;DHT22;443;51.448;7.028;2022-07-23T12:47:59;21.30;78.20
913;DHT22;443;51.448;7.028;2022-07-23T12:50:42;21.30;78.00
913;DHT22;443;51.448;7.028;2022-07-23T12:53:13;21.30;78.80
913;DHT22;443;51.448;7.028;2022-07-23T12:55:40;21.30;78.00
913;DHT22;443;51.448;7.028;2022-07-23T12:58:10;21.30;78.40
913;DHT22;443;51.448;7.028;2022-07-23T13:01:01;21.30;78.40
913;DHT22;443;51.448;7.028;2022-07-23T13:03:32;21.30;78.40
913;DHT22;443;51.448;7.028;2022-07-23T13:06:00;21.30;78.30
913;DHT22;443;51.448;7.028;2022-07-23T13:08:30;21.40;78.30
913;DHT22;443;51.448;7.028;2022-07-23T13:10:58;21.40;78.10
913;DHT22;443;51.448;7.028;2022-07-23T13:13:28;21.40;78.00
913;DHT22;443;51.448;7.028;2022-07-23T13:15:55;21.50;78.20
913;DHT22;443;51.448;7.028;2022-07-23T13:18:22;21.50;77.90
913;DHT22;443;51.448;7.028;2022-07-23T13:20:49;21.50;77.80
913;DHT22;443;51.448;7.028;2022-07-23T13:23:17;21.50;77.60
913;DHT22;443;51.448;7.028;2022-07-23T13:25:46;21.50;77.70
913;DHT22;443;51.448;7.028;2022-07-23T13:28:14;21.50;77.70
913;DHT22;443;51.448;7.028;2022-07-23T13:30:41;21.50;77.80
913;DHT22;443;51.448;7.028;2022-07-23T13:33:08;21.60;77.50
913;DHT22;443;51.448;7.028;2022-07-23T13:35:36;21.60;77.70
913;DHT22;443;51.448;7.028;2022-07-23T13:38:03;21.60;77.70
913;DHT22;443;51.448;7.028;2022-07-23T13:40:33;21.70;77.30
913;DHT22;443;51.448;7.028;2022-07-23T13:43:01;21.70;77.00
913;DHT22;443;51.448;7.028;2022-07-23T13:45:28;21.70;76.30
913;DHT22;443;51.448;7.028;2022-07-23T13:47:54;21.80;76.70
913;DHT22;443;51.448;7.028;2022-07-23T13:50:22;21.80;76.90
913;DHT22;443;51.448;7.028;2022-07-23T13:52:49;21.90;76.70
913;DHT22;443;51.448;7.028;2022-07-23T13:55:16;22.00;76.30
913;DHT22;443;51.448;7.028;2022-07-23T13:57:43;22.10;75.20
913;DHT22;443;51.448;7.028;2022-07-23T14:00:12;22.10;74.80
913;DHT22;443;51.448;7.028;2022-07-23T14:02:40;22.20;75.10
913;DHT22;443;51.448;7.028;2022-07-23T14:05:09;22.20;74.90
913;DHT22;443;51.448;7.028;2022-07-23T14:07:37;22.20;75.10
913;DHT22;443;51.448;7.028;2022-07-23T14:10:05;22.30;75.10
913;DHT22;443;51.448;7.028;2022-07-23T14:12:33;22.40;75.20
913;DHT22;443;51.448;7.028;2022-07-23T14:15:00;22.30;75.10
913;DHT22;443;51.448;7.028;2022-07-23T14:17:28;22.20;75.40
913;DHT22;443;51.448;7.028;2022-07-23T14:19:55;22.20;75.70
913;DHT22;443;51.448;7.028;2022-07-23T14:22:22;22.10;75.90
913;DHT22;443;51.448;7.028;2022-07-23T14:24:49;22.10;76.20
913;DHT22;443;51.448;7.028;2022-07-23T14:27:16;22.10;76.00
913;DHT22;443;51.448;7.028;2022-07-23T14:29:43;22.30;75.80
913;DHT22;443;51.448;7.028;2022-07-23T14:32:10;22.40;75.30
913;DHT22;443;51.448;7.028;2022-07-23T14:34:38;22.50;74.80
913;DHT22;443;51.448;7.028;2022-07-23T14:37:05;22.60;74.60
913;DHT22;443;51.448;7.028;2022-07-23T14:39:32;22.70;74.40
913;DHT22;443;51.448;7.028;2022-07-23T14:41:58;22.70;74.50
913;DHT22;443;51.448;7.028;2022-07-23T14:44:25;22.50;74.70
913;DHT22;443;51.448;7.028;2022-07-23T14:46:53;22.40;75.20
913;DHT22;443;51.448;7.028;2022-07-23T14:49:19;22.40;75.50
913;DHT22;443;51.448;7.028;2022-07-23T14:51:48;22.40;75.50
913;DHT22;443;51.448;7.028;2022-07-23T14:54:15;22.50;74.80
913;DHT22;443;51.448;7.028;2022-07-23T14:56:41;22.70;74.30
913;DHT22;443;51.448;7.028;2022-07-23T14:59:09;22.90;73.70
913;DHT22;443;51.448;7.028;2022-07-23T15:01:36;23.00;73.50
913;DHT22;443;51.448;7.028;2022-07-23T15:04:03;23.00;73.80
913;DHT22;443;51.448;7.028;2022-07-23T15:06:30;23.00;73.60
913;DHT22;443;51.448;7.028;2022-07-23T15:08:58;22.90;73.60
913;DHT22;443;51.448;7.028;2022-07-23T15:11:25;22.90;73.60
913;DHT22;443;51.448;7.028;2022-07-23T15:13:52;22.90;73.90
913;DHT22;443;51.448;7.028;2022-07-23T15:16:19;22.80;74.10
913;DHT22;443;51.448;7.028;2022-07-23T15:18:46;22.70;75.00
913;DHT22;443;51.448;7.028;2022-07-23T15:21:13;22.70;74.40
913;DHT22;443;51.448;7.028;2022-07-23T15:23:40;22.60;74.70
913;DHT22;443;51.448;7.028;2022-07-23T15:26:08;22.50;74.70
913;DHT22;443;51.448;7.028;2022-07-23T15:28:36;22.60;74.90
913;DHT22;443;51.448;7.028;2022-07-23T15:31:03;22.60;75.00
913;DHT22;443;51.448;7.028;2022-07-23T15:33:30;22.50;74.90
913;DHT22;443;51.448;7.028;2022-07-23T15:35:57;22.40;75.20
913;DHT22;443;51.448;7.028;2022-07-23T15:38:25;22.40;75.40
913;DHT22;443;51.448;7.028;2022-07-23T15:40:53;22.40;75.60
913;DHT22;443;51.448;7.028;2022-07-23T15:43:21;22.30;75.50
913;DHT22;443;51.448;7.028;2022-07-23T15:45:48;22.30;75.60
913;DHT22;443;51.448;7.028;2022-07-23T15:48:16;22.30;75.60
913;DHT22;443;51.448;7.028;2022-07-23T15:50:44;22.30;75.50
913;DHT22;443;51.448;7.028;2022-07-23T15:53:11;22.30;75.60
913;DHT22;443;51.448;7.028;2022-07-23T15:55:38;22.30;75.70
913;DHT22;443;51.448;7.028;2022-07-23T15:58:05;22.30;75.70
913;DHT22;443;51.448;7.028;2022-07-23T16:00:34;22.30;75.70
913;DHT22;443;51.448;7.028;2022-07-23T16:03:01;22.30;75.90
913;DHT22;443;51.448;7.028;2022-07-23T16:05:27;22.30;75.90
913;DHT22;443;51.448;7.028;2022-07-23T16:07:57;22.30;75.70
913;DHT22;443;51.448;7.028;2022-07-23T16:10:24;22.30;75.70
913;DHT22;443;51.448;7.028;2022-07-23T16:12:51;22.30;75.70
913;DHT22;443;51.448;7.028;2022-07-23T16:15:18;22.30;75.70
913;DHT22;443;51.448;7.028;2022-07-23T16:17:46;22.30;75.70
913;DHT22;443;51.448;7.028;2022-07-23T16:20:13;22.30;75.90
913;DHT22;443;51.448;7.028;2022-07-23T16:22:40;22.20;75.90
913;DHT22;443;51.448;7.028;2022-07-23T16:25:08;22.20;75.90
913;DHT22;443;51.448;7.028;2022-07-23T16:27:39;22.20;76.00
913;DHT22;443;51.448;7.028;2022-07-23T16:30:08;22.20;76.00
913;DHT22;443;51.448;7.028;2022-07-23T16:32:35;22.20;76.00
913;DHT22;443;51.448;7.028;2022-07-23T16:35:05;22.20;76.00
913;DHT22;443;51.448;7.028;2022-07-23T16:37:31;22.20;75.90
913;DHT22;443;51.448;7.028;2022-07-23T16:39:58;22.30;76.00
913;DHT22;443;51.448;7.028;2022-07-23T16:42:25;22.30;75.90
913;DHT22;443;51.448;7.028;2022-07-23T16:44:53;22.30;75.70